Aérodrome :







RETROUVEZ-NOUS SUR...

 
LOGIN :

S'inscrire | Disclaimer

   EN    FR    IT 

 









Légende :    VFR   VFR Marginal   IFR   IFR Intensif   IFR Très Intensif
Visi : 
Plafond : 
>= 8 km
>= 3000ft
5 à 8 km
1000 à 3000 ft
1500m à 5 km
500 à 1000 ft
800 à 1500m
200 à 500 ft
< 800m
< 200 ft
Symboles :   Orages  Brouillard  Fortes neiges  Fortes précipitations  Vent > 20 kt






- Altitude de l'aérodrome : 6 ft
- Code IATA : AEY


BIAR - Akureyri

DERNIER METAR :
  • 210300Z 33009KT 5000 -SN BKN008 OVC015 M00/M01 Q0968

METARs EXPIRÉS :
  • 210200Z 32006KT 4200 -SN FEW010 OVC012 M00/M01 Q0970
  • 210100Z 33007KT 3600 -SN BKN007 OVC012 M00/M01 Q0971

TAF TAF BIAR
Valide du 21 à 03h jusqu'au 22 à 03h UTC


210107Z 2103/2203 34013KT 6000 -SN SCT010 BKN018 OVC033 TX00/2115Z TNM02/2106Z
TEMPO 2103/2203 1000 SN BKN005 OVC010
PROB40
TEMPO 2104/2109 03015G25KT



MET'MAP, la Météo Aéronautique d'un coup d'oeil ! - Copyright ORBIFLY Décembre 2007 - Disclaimer

ORBIFLY MET'MAP TEAM :

Programmation & Développement : Alexandra Zaïnal
Sur une idée originale de : Baudouin d'Aumeries
Assistance à la programmation : Marc-Olivier Méhu
Soutien technique & logistique : Manuel Goepfert

Contact : metmap@orbifly.com




SOURCES & CREDITS :

   NOAA